createdAt,value
2018-06-18T00:02:21.640Z,14.65
2018-06-18T00:04:50.975Z,14.70
2018-06-18T00:07:20.557Z,14.66
2018-06-18T00:09:49.746Z,14.65
2018-06-18T00:12:18.932Z,14.69
2018-06-18T00:14:48.948Z,14.70
2018-06-18T00:17:18.389Z,14.65
2018-06-18T00:19:48.979Z,14.62
2018-06-18T00:22:19.119Z,14.64
2018-06-18T00:24:49.588Z,14.63
2018-06-18T00:27:19.195Z,14.55
2018-06-18T00:29:48.688Z,14.58
2018-06-18T00:32:18.301Z,14.62
2018-06-18T00:34:47.830Z,14.54
2018-06-18T00:37:17.258Z,14.54
2018-06-18T00:39:47.367Z,14.57
2018-06-18T00:42:17.032Z,14.47
2018-06-18T00:44:46.485Z,14.50
2018-06-18T00:47:15.986Z,14.51
2018-06-18T00:49:45.740Z,14.45
2018-06-18T00:52:14.880Z,14.49
2018-06-18T00:54:44.401Z,14.44
2018-06-18T00:57:13.872Z,14.41
2018-06-18T00:59:43.408Z,14.38
2018-06-18T01:02:13.249Z,14.41
2018-06-18T01:04:42.739Z,14.44
2018-06-18T01:07:12.687Z,14.43
2018-06-18T01:09:42.598Z,14.46
2018-06-18T01:12:12.173Z,14.50
2018-06-18T01:14:41.761Z,14.52
2018-06-18T01:17:11.276Z,14.58
2018-06-18T01:19:41.383Z,14.52
2018-06-18T01:22:10.893Z,14.57
2018-06-18T01:24:55.795Z,14.55
2018-06-18T01:27:25.371Z,14.57
2018-06-18T01:29:55.253Z,14.55
2018-06-18T01:32:26.207Z,14.51
2018-06-18T01:34:55.869Z,14.55
2018-06-18T01:37:26.005Z,14.52
2018-06-18T01:39:55.463Z,14.50
2018-06-18T01:42:25.198Z,14.52
2018-06-18T01:44:54.695Z,14.50
2018-06-18T01:47:24.243Z,14.43
2018-06-18T01:49:54.024Z,14.43
2018-06-18T01:52:23.542Z,14.45
2018-06-18T01:54:53.069Z,14.45
2018-06-18T01:57:22.489Z,14.46
2018-06-18T01:59:52.357Z,14.53
2018-06-18T02:02:21.953Z,14.53
2018-06-18T02:04:51.553Z,14.48
2018-06-18T02:07:21.079Z,14.46
2018-06-18T02:09:51.171Z,14.47
2018-06-18T02:12:20.594Z,14.54
2018-06-18T02:14:50.076Z,14.51
2018-06-18T02:17:19.921Z,14.51
2018-06-18T02:19:49.420Z,14.54
2018-06-18T02:22:19.050Z,14.53
2018-06-18T02:24:48.618Z,14.52
2018-06-18T02:27:19.197Z,14.55
2018-06-18T02:29:53.874Z,14.55
2018-06-18T02:32:28.637Z,14.54
2018-06-18T02:35:03.461Z,14.53
2018-06-18T02:37:38.174Z,14.53
2018-06-18T02:40:12.861Z,14.53
2018-06-18T02:42:42.819Z,14.59
2018-06-18T02:45:12.906Z,14.56
2018-06-18T02:47:43.025Z,14.58
2018-06-18T02:50:12.508Z,14.59
2018-06-18T02:52:41.926Z,14.57
2018-06-18T02:55:11.409Z,14.56
2018-06-18T02:57:41.330Z,14.56
2018-06-18T03:00:11.805Z,14.53
2018-06-18T03:02:41.319Z,14.52
2018-06-18T03:05:10.870Z,14.57
2018-06-18T03:07:40.499Z,14.57
2018-06-18T03:10:09.965Z,14.55
2018-06-18T03:12:39.593Z,14.55
2018-06-18T03:15:09.165Z,14.58
2018-06-18T03:17:38.764Z,14.64
2018-06-18T03:20:13.944Z,14.62
2018-06-18T03:22:48.600Z,14.65
2018-06-18T03:25:23.531Z,14.63
2018-06-18T03:27:58.721Z,14.73
2018-06-18T03:30:28.571Z,14.76
2018-06-18T03:32:58.283Z,14.72
2018-06-18T03:35:27.981Z,14.81
2018-06-18T03:37:58.924Z,14.77
2018-06-18T03:40:28.400Z,14.80
2018-06-18T03:42:57.867Z,14.84
2018-06-18T03:45:31.057Z,14.83
2018-06-18T03:48:05.528Z,14.94
2018-06-18T03:50:35.326Z,14.88
2018-06-18T03:53:05.458Z,14.95
2018-06-18T03:55:58.568Z,14.94
2018-06-18T03:58:27.788Z,15.00
2018-06-18T04:01:29.817Z,14.98
2018-06-18T04:04:08.416Z,14.93
2018-06-18T04:06:43.210Z,14.97
2018-06-18T04:09:18.167Z,14.99
2018-06-18T04:11:52.670Z,15.00
2018-06-18T04:14:22.249Z,14.95
2018-06-18T04:16:52.239Z,14.97
2018-06-18T04:19:22.190Z,15.09
2018-06-18T04:21:51.869Z,15.09
2018-06-18T04:24:21.358Z,15.12
2018-06-18T04:26:51.068Z,15.17
2018-06-18T04:29:22.716Z,15.30
2018-06-18T04:31:54.253Z,15.17
2018-06-18T04:34:32.199Z,15.13
2018-06-18T04:37:01.684Z,15.12
2018-06-18T04:39:31.382Z,15.27
2018-06-18T04:42:06.228Z,15.31
2018-06-18T04:44:40.954Z,15.37
2018-06-18T04:47:15.708Z,15.44
2018-06-18T04:49:50.322Z,15.48
2018-06-18T04:52:19.858Z,15.47
2018-06-18T04:54:49.316Z,15.35
2018-06-18T04:57:18.885Z,15.49
2018-06-18T05:00:29.088Z,15.37
2018-06-18T05:02:59.143Z,15.37
2018-06-18T05:05:28.613Z,15.47
2018-06-18T05:08:12.896Z,15.56
2018-06-18T05:10:42.385Z,15.62
2018-06-18T05:13:11.942Z,15.63
2018-06-18T05:15:42.125Z,15.59
2018-06-18T05:18:11.865Z,15.62
2018-06-18T05:20:41.569Z,15.50
2018-06-18T05:23:17.310Z,15.51
2018-06-18T05:25:53.899Z,15.56
2018-06-18T05:28:24.034Z,15.54
2018-06-18T05:30:53.587Z,15.39
2018-06-18T05:33:23.102Z,15.63
2018-06-18T05:35:53.345Z,15.67
2018-06-18T05:38:26.987Z,15.66
2018-06-18T05:40:57.345Z,15.64
2018-06-18T05:43:26.854Z,15.69
2018-06-18T05:45:56.411Z,15.78
2018-06-18T05:48:26.001Z,15.83
2018-06-18T05:50:55.674Z,15.82
2018-06-18T05:53:25.304Z,15.81
2018-06-18T05:55:54.956Z,15.89
2018-06-18T05:58:24.668Z,15.90
2018-06-18T06:00:55.202Z,15.83
2018-06-18T06:03:25.188Z,15.94
2018-06-18T06:05:54.944Z,15.97
2018-06-18T06:08:24.330Z,16.04
2018-06-18T06:10:53.747Z,16.23
2018-06-18T06:13:23.509Z,16.14
2018-06-18T06:15:53.005Z,16.17
2018-06-18T06:18:22.496Z,16.24
2018-06-18T06:20:59.894Z,16.30
2018-06-18T06:23:29.651Z,16.36
2018-06-18T06:25:59.346Z,16.46
2018-06-18T06:28:28.862Z,16.70
2018-06-18T06:30:58.358Z,16.85
2018-06-18T06:33:28.421Z,17.00
2018-06-18T06:36:00.023Z,17.01
2018-06-18T06:38:29.628Z,17.15
2018-06-18T06:41:00.158Z,17.36
2018-06-18T06:43:29.634Z,17.44
2018-06-18T06:45:59.818Z,17.70
2018-06-18T06:48:29.434Z,17.72
2018-06-18T06:50:59.003Z,18.05
2018-06-18T06:53:29.561Z,18.07
2018-06-18T06:55:59.039Z,17.84
2018-06-18T06:58:28.614Z,17.78
2018-06-18T07:00:58.286Z,17.91
2018-06-18T07:03:27.739Z,17.97
2018-06-18T07:05:57.282Z,18.01
2018-06-18T07:08:26.900Z,18.08
2018-06-18T07:10:57.302Z,17.94
2018-06-18T07:13:27.116Z,18.04
2018-06-18T07:15:57.117Z,18.12
2018-06-18T07:18:26.664Z,18.35
2018-06-18T07:20:56.174Z,18.14
2018-06-18T07:23:26.086Z,18.13
2018-06-18T07:25:55.521Z,18.06
2018-06-18T07:28:24.877Z,17.81
2018-06-18T07:30:54.450Z,17.68
2018-06-18T07:33:23.933Z,17.57
2018-06-18T07:35:53.220Z,17.61
2018-06-18T07:38:22.832Z,17.49
2018-06-18T07:40:52.273Z,17.43
2018-06-18T07:43:22.572Z,17.48
2018-06-18T07:45:51.750Z,17.64
2018-06-18T07:48:21.216Z,17.67
2018-06-18T07:50:50.770Z,17.63
2018-06-18T07:53:20.867Z,17.74
2018-06-18T07:55:50.353Z,17.73
2018-06-18T07:58:20.367Z,17.80
2018-06-18T08:00:50.654Z,18.06
2018-06-18T08:03:19.972Z,18.33
2018-06-18T08:05:49.732Z,18.38
2018-06-18T08:08:19.194Z,18.41
2018-06-18T08:10:48.757Z,18.67
2018-06-18T08:13:18.266Z,18.82
2018-06-18T08:15:48.230Z,18.76
2018-06-18T08:18:17.786Z,18.62
2018-06-18T08:20:48.074Z,18.87
2018-06-18T08:23:17.684Z,19.07
2018-06-18T08:25:47.604Z,19.10
2018-06-18T08:28:17.114Z,19.09
2018-06-18T08:30:47.429Z,19.10
2018-06-18T08:33:17.091Z,19.34
2018-06-18T08:35:46.707Z,19.36
2018-06-18T08:38:16.051Z,19.40
2018-06-18T08:40:45.508Z,19.47
2018-06-18T08:43:14.997Z,19.19
2018-06-18T08:45:44.631Z,19.22
2018-06-18T08:48:18.676Z,19.24
2018-06-18T08:50:53.254Z,19.32
2018-06-18T08:53:27.962Z,19.12
2018-06-18T08:56:03.109Z,19.27
2018-06-18T08:58:38.468Z,19.43
2018-06-18T09:01:08.626Z,19.21
2018-06-18T09:03:43.417Z,19.28
2018-06-18T09:06:12.899Z,19.26
2018-06-18T09:08:47.611Z,19.24
2018-06-18T09:11:18.122Z,19.29
2018-06-18T09:13:47.801Z,19.43
2018-06-18T09:16:17.740Z,19.27
2018-06-18T09:18:47.682Z,19.15
2018-06-18T09:21:17.196Z,18.95
2018-06-18T09:23:46.838Z,18.85
2018-06-18T09:26:17.344Z,18.97
2018-06-18T09:28:46.947Z,18.91
2018-06-18T09:31:16.388Z,18.95
2018-06-18T09:33:46.342Z,19.16
2018-06-18T09:36:15.889Z,19.25
2018-06-18T09:38:45.984Z,19.13
2018-06-18T09:41:15.513Z,19.04
2018-06-18T09:43:44.952Z,19.21
2018-06-18T09:46:14.366Z,19.00
2018-06-18T09:48:49.986Z,18.98
2018-06-18T09:51:24.831Z,18.85
2018-06-18T09:53:59.745Z,18.90
2018-06-18T09:56:35.002Z,18.94
2018-06-18T09:59:09.779Z,18.96
2018-06-18T10:01:39.305Z,18.98
2018-06-18T10:04:08.792Z,19.07
2018-06-18T10:06:39.860Z,19.08
2018-06-18T10:09:12.283Z,19.07
2018-06-18T10:11:42.262Z,19.02
2018-06-18T10:14:13.018Z,19.14
2018-06-18T10:16:42.454Z,19.20
2018-06-18T10:19:11.749Z,19.38
2018-06-18T10:21:41.634Z,19.69
2018-06-18T10:24:11.169Z,19.95
2018-06-18T10:26:40.821Z,19.84
2018-06-18T10:29:11.079Z,19.73
2018-06-18T10:31:41.210Z,19.91
2018-06-18T10:34:15.970Z,19.70
2018-06-18T10:36:50.643Z,19.51
2018-06-18T10:39:25.511Z,19.48
2018-06-18T10:42:00.559Z,19.25
2018-06-18T10:44:30.614Z,19.12
2018-06-18T10:47:00.117Z,19.09
2018-06-18T10:49:29.618Z,19.02
2018-06-18T10:51:59.160Z,19.04
2018-06-18T10:54:28.963Z,19.10
2018-06-18T10:56:58.428Z,19.26
2018-06-18T10:59:28.682Z,19.14
2018-06-18T11:01:58.201Z,19.22
2018-06-18T11:04:31.176Z,19.32
2018-06-18T11:07:00.882Z,19.27
2018-06-18T11:09:31.320Z,19.17
2018-06-18T11:12:01.735Z,19.17
2018-06-18T11:14:31.311Z,19.18
2018-06-18T11:17:07.322Z,19.31
2018-06-18T11:19:41.767Z,19.43
2018-06-18T11:22:11.510Z,19.09
2018-06-18T11:24:49.473Z,18.96
2018-06-18T11:27:19.008Z,19.05
2018-06-18T11:29:49.243Z,19.16
2018-06-18T11:32:19.787Z,19.30
2018-06-18T11:34:49.319Z,19.69
2018-06-18T11:37:18.946Z,19.71
2018-06-18T11:39:50.441Z,19.57
2018-06-18T11:42:20.293Z,19.99
2018-06-18T11:44:50.181Z,20.30
2018-06-18T11:47:20.238Z,20.02
2018-06-18T11:49:49.660Z,19.76
2018-06-18T11:52:19.190Z,19.79
2018-06-18T11:54:48.538Z,19.69
2018-06-18T11:57:18.161Z,19.53
2018-06-18T11:59:53.680Z,19.57
2018-06-18T12:02:28.799Z,19.42
2018-06-18T12:05:04.092Z,19.59
2018-06-18T12:07:38.829Z,19.64
2018-06-18T12:10:08.513Z,19.29
2018-06-18T12:12:38.256Z,19.48
2018-06-18T12:15:07.837Z,19.33
2018-06-18T12:17:38.517Z,19.07
2018-06-18T12:20:07.709Z,19.35
2018-06-18T12:22:37.616Z,19.49
2018-06-18T12:25:07.189Z,19.34
2018-06-18T12:27:37.240Z,19.30
2018-06-18T12:30:06.793Z,18.93
2018-06-18T12:32:36.733Z,19.15
2018-06-18T12:35:06.239Z,19.03
2018-06-18T12:37:36.180Z,19.14
2018-06-18T12:40:05.768Z,19.80
2018-06-18T12:42:35.226Z,20.18
2018-06-18T12:46:08.293Z,20.51
2018-06-18T12:48:43.050Z,19.96
2018-06-18T12:51:17.661Z,19.98
2018-06-18T12:53:53.016Z,20.20
2018-06-18T12:56:28.412Z,20.34
2018-06-18T12:58:57.957Z,20.46
2018-06-18T13:01:31.197Z,20.18
2018-06-18T13:04:01.417Z,19.83
2018-06-18T13:06:30.958Z,19.99
2018-06-18T13:09:00.488Z,19.93
2018-06-18T13:11:30.210Z,20.46
2018-06-18T13:13:59.368Z,20.90
2018-06-18T13:16:29.346Z,21.27
2018-06-18T13:18:58.876Z,21.38
2018-06-18T13:21:28.426Z,21.21
2018-06-18T13:23:57.989Z,21.38
2018-06-18T13:26:28.142Z,21.04
2018-06-18T13:28:57.833Z,20.90
2018-06-18T13:31:27.335Z,20.93
2018-06-18T13:33:57.079Z,20.70
2018-06-18T13:36:26.541Z,20.50
2018-06-18T13:40:03.398Z,20.55
2018-06-18T13:42:38.895Z,20.27
2018-06-18T13:45:14.161Z,19.99
2018-06-18T13:47:48.983Z,20.17
2018-06-18T13:50:18.784Z,20.66
2018-06-18T13:52:48.399Z,21.30
2018-06-18T13:55:17.901Z,20.92
2018-06-18T13:57:48.552Z,20.70
2018-06-18T14:00:19.580Z,20.74
2018-06-18T14:02:49.270Z,20.52
2018-06-18T14:05:19.291Z,20.56
2018-06-18T14:07:48.885Z,20.83
2018-06-18T14:10:18.938Z,20.90
2018-06-18T14:12:48.381Z,21.02
2018-06-18T14:15:17.769Z,21.25
2018-06-18T14:17:47.510Z,21.99
2018-06-18T14:20:26.407Z,21.99
2018-06-18T14:22:56.027Z,22.25
2018-06-18T14:25:25.480Z,22.75
2018-06-18T14:27:55.004Z,22.74
2018-06-18T14:30:29.764Z,22.49
2018-06-18T14:33:04.930Z,23.26
2018-06-18T14:35:39.754Z,23.52
2018-06-18T14:38:15.007Z,22.68
2018-06-18T14:40:45.088Z,22.25
2018-06-18T14:43:15.069Z,21.94
2018-06-18T14:45:44.795Z,22.12
2018-06-18T14:48:14.476Z,22.08
2018-06-18T14:50:44.138Z,21.92
2018-06-18T14:53:14.405Z,21.71
2018-06-18T14:55:46.909Z,21.54
2018-06-18T14:58:16.769Z,21.29
2018-06-18T15:00:45.999Z,21.34
2018-06-18T15:03:15.450Z,21.08
2018-06-18T15:05:44.871Z,20.99
2018-06-18T15:08:14.171Z,20.89
2018-06-18T15:10:49.338Z,20.81
2018-06-18T15:13:18.962Z,20.73
2018-06-18T15:15:53.766Z,20.72
2018-06-18T15:18:23.326Z,20.86
2018-06-18T15:20:56.752Z,20.82
2018-06-18T15:23:26.197Z,20.77
2018-06-18T15:25:55.908Z,20.99
2018-06-18T15:28:25.022Z,21.19
2018-06-18T15:30:54.543Z,21.28
2018-06-18T15:33:23.969Z,21.56
2018-06-18T15:35:53.557Z,21.94
2018-06-18T15:38:23.260Z,22.11
2018-06-18T15:40:52.668Z,22.66
2018-06-18T15:43:22.781Z,22.93
2018-06-18T15:45:52.300Z,23.03
2018-06-18T15:48:21.931Z,22.31
2018-06-18T15:50:51.431Z,22.09
2018-06-18T15:53:20.904Z,22.22
2018-06-18T15:55:50.469Z,22.12
2018-06-18T15:58:19.864Z,21.99
2018-06-18T16:00:49.732Z,22.01
2018-06-18T16:03:19.262Z,21.84
2018-06-18T16:05:49.179Z,21.73
2018-06-18T16:08:18.662Z,21.75
2018-06-18T16:10:48.205Z,21.64
2018-06-18T16:13:17.996Z,21.62
2018-06-18T16:15:47.655Z,21.56
2018-06-18T16:18:17.130Z,21.78
2018-06-18T16:20:46.621Z,21.73
2018-06-18T16:23:16.217Z,21.67
2018-06-18T16:25:46.041Z,21.69
2018-06-18T16:28:15.970Z,21.54
2018-06-18T16:30:46.973Z,21.71
2018-06-18T16:33:17.364Z,21.76
2018-06-18T16:35:46.794Z,21.93
2018-06-18T16:38:17.009Z,22.10
2018-06-18T16:40:47.054Z,21.98
2018-06-18T16:43:17.360Z,22.21
2018-06-18T16:45:47.282Z,21.93
2018-06-18T16:48:16.908Z,21.81
2018-06-18T16:50:48.253Z,22.08
2018-06-18T16:53:19.327Z,22.26
2018-06-18T16:55:49.188Z,22.83
2018-06-18T16:58:20.433Z,23.09
2018-06-18T17:00:50.489Z,23.11
2018-06-18T17:03:20.320Z,23.77
2018-06-18T17:05:50.841Z,23.72
2018-06-18T17:08:21.736Z,23.59
2018-06-18T17:10:51.649Z,23.09
2018-06-18T17:13:21.369Z,23.04
2018-06-18T17:15:50.794Z,22.47
2018-06-18T17:18:22.065Z,22.22
2018-06-18T17:20:51.845Z,21.78
2018-06-18T17:23:21.974Z,21.76
2018-06-18T17:25:52.366Z,21.66
2018-06-18T17:28:21.499Z,21.59
2018-06-18T17:30:51.006Z,21.54
2018-06-18T17:33:21.170Z,21.37
2018-06-18T17:35:50.730Z,21.21
2018-06-18T17:38:20.299Z,21.09
2018-06-18T17:40:50.220Z,21.02
2018-06-18T17:43:19.431Z,20.96
2018-06-18T17:45:49.172Z,21.04
2018-06-18T17:48:19.613Z,21.00
2018-06-18T17:50:48.838Z,20.93
2018-06-18T17:53:18.567Z,20.90
2018-06-18T17:55:48.654Z,20.88
2018-06-18T17:58:18.392Z,20.82
2018-06-18T18:00:47.743Z,19.61
2018-06-18T18:03:17.266Z,18.98
2018-06-18T18:05:46.768Z,18.67
2018-06-18T18:08:16.240Z,18.44
2018-06-18T18:10:46.001Z,18.19
2018-06-18T18:13:15.531Z,18.10
2018-06-18T18:15:44.941Z,17.95
2018-06-18T18:18:14.959Z,17.89
2018-06-18T18:20:44.652Z,17.84
2018-06-18T18:23:14.651Z,17.84
2018-06-18T18:25:45.114Z,17.73
2018-06-18T18:28:15.207Z,17.68
2018-06-18T18:30:45.118Z,17.50
2018-06-18T18:33:14.610Z,17.53
2018-06-18T18:35:44.755Z,17.39
2018-06-18T18:38:14.906Z,17.41
2018-06-18T18:40:44.187Z,17.34
2018-06-18T18:43:13.868Z,17.29
2018-06-18T18:45:43.400Z,17.22
2018-06-18T18:48:12.885Z,17.21
2018-06-18T18:50:43.506Z,17.15
2018-06-18T18:53:13.017Z,17.24
2018-06-18T18:56:02.892Z,17.19
2018-06-18T18:59:03.261Z,17.11
2018-06-18T19:01:32.888Z,17.07
2018-06-18T19:04:06.257Z,17.11
2018-06-18T19:06:37.235Z,17.15
2018-06-18T19:09:09.883Z,17.12
2018-06-18T19:11:40.150Z,17.14
2018-06-18T19:14:09.809Z,17.11
2018-06-18T19:16:39.397Z,17.13
2018-06-18T19:19:08.929Z,17.11
2018-06-18T19:21:39.159Z,17.17
2018-06-18T19:24:08.810Z,17.15
2018-06-18T19:26:38.348Z,17.17
2018-06-18T19:29:07.861Z,17.17
2018-06-18T19:31:37.422Z,17.20
2018-06-18T19:34:13.132Z,17.24
2018-06-18T19:36:47.851Z,17.25
2018-06-18T19:39:17.687Z,17.23
2018-06-18T19:41:47.152Z,17.17
2018-06-18T19:44:16.691Z,17.19
2018-06-18T19:47:54.243Z,17.11
2018-06-18T19:50:24.071Z,17.14
2018-06-18T19:52:53.578Z,17.11
2018-06-18T19:55:26.788Z,17.09
2018-06-18T19:57:57.259Z,17.10
2018-06-18T20:00:37.985Z,17.06
2018-06-18T20:03:08.403Z,17.01
2018-06-18T20:05:37.934Z,16.97
2018-06-18T20:08:11.791Z,16.96
2018-06-18T20:10:42.420Z,16.98
2018-06-18T20:13:12.785Z,17.00
2018-06-18T20:15:42.938Z,16.98
2018-06-18T20:18:12.457Z,16.96
2018-06-18T20:20:42.965Z,16.93
2018-06-18T20:23:19.373Z,16.97
2018-06-18T20:25:54.373Z,16.93
2018-06-18T20:28:24.716Z,16.94
2018-06-18T20:30:54.700Z,16.88
2018-06-18T20:33:24.963Z,16.86
2018-06-18T20:36:03.594Z,16.83
2018-06-18T20:38:33.874Z,16.87
2018-06-18T20:41:03.555Z,16.88
2018-06-18T20:43:48.886Z,16.86
2018-06-18T20:46:20.490Z,16.78
2018-06-18T20:48:51.058Z,16.80
2018-06-18T20:51:22.640Z,16.79
2018-06-18T20:53:52.058Z,16.78
2018-06-18T20:56:22.121Z,16.80
2018-06-18T20:58:51.629Z,16.81
2018-06-18T21:01:21.378Z,16.76
2018-06-18T21:03:50.850Z,16.81
2018-06-18T21:06:20.362Z,16.81
2018-06-18T21:08:50.500Z,16.83
2018-06-18T21:11:19.958Z,16.84
2018-06-18T21:13:49.775Z,16.82
2018-06-18T21:16:19.501Z,16.79
2018-06-18T21:18:50.277Z,16.79
2018-06-18T21:21:19.465Z,16.81
2018-06-18T21:23:48.960Z,16.70
2018-06-18T21:26:19.211Z,16.71
2018-06-18T21:28:48.704Z,16.60
2018-06-18T21:31:18.293Z,16.66
2018-06-18T21:33:47.791Z,16.56
2018-06-18T21:36:18.608Z,16.55
2018-06-18T21:38:48.749Z,16.57
2018-06-18T21:41:18.288Z,16.58
2018-06-18T21:43:47.849Z,16.55
2018-06-18T21:46:18.161Z,16.45
2018-06-18T21:48:48.583Z,16.44
2018-06-18T21:51:18.113Z,16.41
2018-06-18T21:53:47.690Z,16.40
2018-06-18T21:56:17.155Z,16.39
2018-06-18T21:58:46.863Z,16.43
2018-06-18T22:01:27.308Z,16.39
2018-06-18T22:03:56.940Z,16.36
2018-06-18T22:06:26.637Z,16.37
2018-06-18T22:08:56.998Z,16.33
2018-06-18T22:11:26.507Z,16.29
2018-06-18T22:13:55.779Z,16.33
2018-06-18T22:16:25.230Z,16.31
2018-06-18T22:18:55.001Z,16.36
2018-06-18T22:21:24.461Z,16.36
2018-06-18T22:23:53.998Z,16.36
2018-06-18T22:26:23.660Z,16.38
2018-06-18T22:28:53.239Z,16.47
2018-06-18T22:31:23.552Z,16.44
2018-06-18T22:33:53.306Z,16.42
2018-06-18T22:36:22.737Z,16.45
2018-06-18T22:38:52.253Z,16.51
2018-06-18T22:41:22.537Z,16.47
2018-06-18T22:43:52.732Z,16.45
2018-06-18T22:46:22.169Z,16.44
2018-06-18T22:48:51.938Z,16.47
2018-06-18T22:51:22.029Z,16.39
2018-06-18T22:53:51.712Z,16.34
2018-06-18T22:56:21.342Z,16.30
2018-06-18T22:58:51.072Z,16.31
2018-06-18T23:01:20.693Z,16.31
2018-06-18T23:03:50.297Z,16.30
2018-06-18T23:06:19.936Z,16.22
2018-06-18T23:08:49.511Z,16.19
2018-06-18T23:11:19.835Z,16.15
2018-06-18T23:13:49.355Z,16.11
2018-06-18T23:16:20.059Z,16.03
2018-06-18T23:18:49.974Z,15.98
2018-06-18T23:21:19.601Z,15.94
2018-06-18T23:23:49.160Z,15.84
2018-06-18T23:26:18.459Z,15.82
2018-06-18T23:28:53.428Z,15.74
2018-06-18T23:31:23.382Z,15.67
2018-06-18T23:33:53.906Z,15.69
2018-06-18T23:36:23.389Z,15.63
2018-06-18T23:38:53.108Z,15.60
2018-06-18T23:41:24.596Z,15.66
2018-06-18T23:43:54.401Z,15.58
2018-06-18T23:46:23.879Z,15.56
2018-06-18T23:48:55.711Z,15.52
2018-06-18T23:51:25.455Z,15.48
2018-06-18T23:53:54.947Z,15.44
2018-06-18T23:56:24.536Z,15.39
2018-06-18T23:58:54.149Z,15.38
